sensor_id;sensor_type;location;lat;lon;timestamp;pressure;altitude;pressure_sealevel;temperature;humidity
42603;BME280;28233;55.748;48.752;2022-09-12T00:01:29;99872.53;;;6.18;89.79
42603;BME280;28233;55.748;48.752;2022-09-12T00:03:33;99864.34;;;6.18;90.00
42603;BME280;28233;55.748;48.752;2022-09-12T00:05:43;99870.59;;;6.18;90.63
42603;BME280;28233;55.748;48.752;2022-09-12T00:07:45;99869.81;;;6.18;90.73
42603;BME280;28233;55.748;48.752;2022-09-12T00:09:48;99873.34;;;6.18;91.02
42603;BME280;28233;55.748;48.752;2022-09-12T00:11:51;99871.44;;;6.19;91.04
42603;BME280;28233;55.748;48.752;2022-09-12T00:13:57;99872.25;;;6.19;91.34
42603;BME280;28233;55.748;48.752;2022-09-12T00:16:00;99870.06;;;6.21;91.47
42603;BME280;28233;55.748;48.752;2022-09-12T00:18:03;99871.16;;;6.20;91.76
42603;BME280;28233;55.748;48.752;2022-09-12T00:20:07;99872.25;;;6.19;91.77
42603;BME280;28233;55.748;48.752;2022-09-12T00:22:10;99868.72;;;6.19;91.95
42603;BME280;28233;55.748;48.752;2022-09-12T00:24:13;99868.19;;;6.17;91.58
42603;BME280;28233;55.748;48.752;2022-09-12T00:26:16;99872.81;;;6.16;91.63
42603;BME280;28233;55.748;48.752;2022-09-12T00:28:19;99876.66;;;6.15;91.93
42603;BME280;28233;55.748;48.752;2022-09-12T00:30:22;99878.03;;;6.12;91.83
42603;BME280;28233;55.748;48.752;2022-09-12T00:32:25;99868.22;;;6.06;91.86
42603;BME280;28233;55.748;48.752;2022-09-12T00:34:27;99875.34;;;6.07;92.32
42603;BME280;28233;55.748;48.752;2022-09-12T00:36:30;99871.28;;;6.05;92.32
42603;BME280;28233;55.748;48.752;2022-09-12T00:38:33;99871.53;;;6.03;92.23
42603;BME280;28233;55.748;48.752;2022-09-12T00:40:41;99876.47;;;6.01;92.32
42603;BME280;28233;55.748;48.752;2022-09-12T00:42:43;99873.19;;;5.99;92.88
42603;BME280;28233;55.748;48.752;2022-09-12T00:44:49;99876.75;;;6.00;92.84
42603;BME280;28233;55.748;48.752;2022-09-12T00:49:10;99873.50;;;5.98;92.99
42603;BME280;28233;55.748;48.752;2022-09-12T00:51:16;99881.69;;;5.98;92.90
42603;BME280;28233;55.748;48.752;2022-09-12T00:53:20;99882.50;;;5.98;93.33
42603;BME280;28233;55.748;48.752;2022-09-12T00:55:52;99882.22;;;6.00;93.43
42603;BME280;28233;55.748;48.752;2022-09-12T00:57:59;99871.31;;;5.95;93.17
42603;BME280;28233;55.748;48.752;2022-09-12T01:00:08;99873.78;;;5.91;93.17
42603;BME280;28233;55.748;48.752;2022-09-12T01:02:16;99871.03;;;5.91;92.63
42603;BME280;28233;55.748;48.752;2022-09-12T01:04:21;99869.69;;;5.88;92.28
42603;BME280;28233;55.748;48.752;2022-09-12T01:06:27;99865.63;;;5.86;92.45
42603;BME280;28233;55.748;48.752;2022-09-12T01:08:32;99872.97;;;5.85;92.64
42603;BME280;28233;55.748;48.752;2022-09-12T01:10:37;99871.34;;;5.84;92.87
42603;BME280;28233;55.748;48.752;2022-09-12T01:12:42;99872.97;;;5.85;93.44
42603;BME280;28233;55.748;48.752;2022-09-12T01:14:45;99873.53;;;5.82;93.39
42603;BME280;28233;55.748;48.752;2022-09-12T01:16:48;99882.81;;;5.86;93.04
42603;BME280;28233;55.748;48.752;2022-09-12T01:35:36;99884.72;;;5.81;94.23
42603;BME280;28233;55.748;48.752;2022-09-12T01:37:53;99881.19;;;5.80;94.55
42603;BME280;28233;55.748;48.752;2022-09-12T01:40:25;99882.34;;;5.74;94.08
42603;BME280;28233;55.748;48.752;2022-09-12T01:42:35;99894.03;;;5.75;94.19
42603;BME280;28233;55.748;48.752;2022-09-12T01:49:31;99890.25;;;5.70;94.82
42603;BME280;28233;55.748;48.752;2022-09-12T01:51:42;99868.50;;;5.60;94.69
42603;BME280;28233;55.748;48.752;2022-09-12T01:53:53;99888.31;;;5.71;94.81
42603;BME280;28233;55.748;48.752;2022-09-12T01:56:19;99895.41;;;5.72;95.18
42603;BME280;28233;55.748;48.752;2022-09-12T01:58:27;99883.44;;;5.68;94.75
42603;BME280;28233;55.748;48.752;2022-09-12T02:00:34;99893.78;;;5.71;94.86
42603;BME280;28233;55.748;48.752;2022-09-12T02:02:44;99891.88;;;5.71;94.83
42603;BME280;28233;55.748;48.752;2022-09-12T02:05:05;99895.69;;;5.70;94.63
42603;BME280;28233;55.748;48.752;2022-09-12T02:07:15;99886.97;;;5.68;94.40
42603;BME280;28233;55.748;48.752;2022-09-12T02:09:23;99891.34;;;5.69;94.71
42603;BME280;28233;55.748;48.752;2022-09-12T02:11:28;99894.88;;;5.70;94.58
42603;BME280;28233;55.748;48.752;2022-09-12T02:16:23;99890.00;;;5.67;95.02
42603;BME280;28233;55.748;48.752;2022-09-12T02:18:29;99888.88;;;5.73;94.67
42603;BME280;28233;55.748;48.752;2022-09-12T02:20:35;99894.03;;;5.75;94.80
42603;BME280;28233;55.748;48.752;2022-09-12T02:22:51;99893.75;;;5.76;94.89
42603;BME280;28233;55.748;48.752;2022-09-12T02:24:59;99899.72;;;5.78;95.09
42603;BME280;28233;55.748;48.752;2022-09-12T02:27:37;99891.28;;;5.80;95.14
42603;BME280;28233;55.748;48.752;2022-09-12T02:29:41;99898.09;;;5.82;95.15
42603;BME280;28233;55.748;48.752;2022-09-12T02:31:48;99895.09;;;5.84;95.17
42603;BME280;28233;55.748;48.752;2022-09-12T02:38:35;99896.94;;;5.99;94.96
42603;BME280;28233;55.748;48.752;2022-09-12T02:40:39;99892.03;;;6.01;95.05
42603;BME280;28233;55.748;48.752;2022-09-12T02:42:42;99889.78;;;6.08;94.68
42603;BME280;28233;55.748;48.752;2022-09-12T02:44:45;99894.09;;;6.19;95.04
42603;BME280;28233;55.748;48.752;2022-09-12T02:46:53;99893.47;;;6.27;94.40
42603;BME280;28233;55.748;48.752;2022-09-12T02:48:57;99896.72;;;6.29;93.63
42603;BME280;28233;55.748;48.752;2022-09-12T02:51:00;99903.22;;;6.39;93.77
42603;BME280;28233;55.748;48.752;2022-09-12T02:53:06;99899.34;;;6.45;93.27
42603;BME280;28233;55.748;48.752;2022-09-12T02:55:09;99896.59;;;6.50;92.97
42603;BME280;28233;55.748;48.752;2022-09-12T02:57:17;99896.53;;;6.55;92.59
42603;BME280;28233;55.748;48.752;2022-09-12T02:59:24;99896.22;;;6.62;92.43
42603;BME280;28233;55.748;48.752;2022-09-12T03:01:46;99888.25;;;6.65;91.94
42603;BME280;28233;55.748;48.752;2022-09-12T03:05:58;99895.56;;;6.75;91.59
42603;BME280;28233;55.748;48.752;2022-09-12T03:12:42;99899.47;;;6.93;91.03
42603;BME280;28233;55.748;48.752;2022-09-12T03:17:18;99896.88;;;7.07;90.60
42603;BME280;28233;55.748;48.752;2022-09-12T03:24:35;99908.41;;;7.28;89.47
42603;BME280;28233;55.748;48.752;2022-09-12T03:26:43;99906.13;;;7.35;89.17
42603;BME280;28233;55.748;48.752;2022-09-12T03:28:48;99905.56;;;7.38;89.43
42603;BME280;28233;55.748;48.752;2022-09-12T03:30:51;99896.72;;;7.46;89.02
42603;BME280;28233;55.748;48.752;2022-09-12T03:32:55;99902.94;;;7.52;89.02
42603;BME280;28233;55.748;48.752;2022-09-12T03:34:58;99899.09;;;7.53;88.82
42603;BME280;28233;55.748;48.752;2022-09-12T03:37:01;99902.31;;;7.60;88.88
42603;BME280;28233;55.748;48.752;2022-09-12T03:39:03;99900.91;;;7.62;88.57
42603;BME280;28233;55.748;48.752;2022-09-12T03:41:06;99900.91;;;7.62;88.81
42603;BME280;28233;55.748;48.752;2022-09-12T03:43:09;99906.38;;;7.62;89.18
42603;BME280;28233;55.748;48.752;2022-09-12T03:45:12;99904.69;;;7.67;89.05
42603;BME280;28233;55.748;48.752;2022-09-12T03:47:15;99897.81;;;7.69;89.23
42603;BME280;28233;55.748;48.752;2022-09-12T03:49:18;99905.41;;;7.72;89.11
42603;BME280;28233;55.748;48.752;2022-09-12T03:51:20;99903.13;;;7.79;89.33
42603;BME280;28233;55.748;48.752;2022-09-12T03:53:23;99904.72;;;7.86;89.03
42603;BME280;28233;55.748;48.752;2022-09-12T03:55:26;99899.97;;;7.91;88.82
42603;BME280;28233;55.748;48.752;2022-09-12T03:57:29;99900.19;;;7.95;89.13
42603;BME280;28233;55.748;48.752;2022-09-12T03:59:31;99912.69;;;8.01;88.92
42603;BME280;28233;55.748;48.752;2022-09-12T04:01:34;99907.28;;;7.96;88.57
42603;BME280;28233;55.748;48.752;2022-09-12T04:03:38;99911.59;;;8.02;88.97
42603;BME280;28233;55.748;48.752;2022-09-12T04:05:44;99914.63;;;8.00;89.34
42603;BME280;28233;55.748;48.752;2022-09-12T04:07:49;99918.69;;;8.03;89.17
42603;BME280;28233;55.748;48.752;2022-09-12T04:09:51;99914.25;;;8.07;89.58
42603;BME280;28233;55.748;48.752;2022-09-12T04:11:54;99915.28;;;8.11;89.25
42603;BME280;28233;55.748;48.752;2022-09-12T04:13:57;99922.59;;;8.16;89.26
42603;BME280;28233;55.748;48.752;2022-09-12T04:16:00;99919.22;;;8.24;89.31
42603;BME280;28233;55.748;48.752;2022-09-12T04:18:03;99908.56;;;8.22;88.82
42603;BME280;28233;55.748;48.752;2022-09-12T04:20:07;99925.56;;;8.38;88.68
42603;BME280;28233;55.748;48.752;2022-09-12T04:22:10;99923.53;;;8.49;88.82
42603;BME280;28233;55.748;48.752;2022-09-12T04:24:13;99923.97;;;8.56;88.29
42603;BME280;28233;55.748;48.752;2022-09-12T04:26:17;99918.41;;;8.61;88.87
42603;BME280;28233;55.748;48.752;2022-09-12T04:28:20;99928.97;;;8.68;88.97
42603;BME280;28233;55.748;48.752;2022-09-12T04:30:22;99925.34;;;8.73;89.39
42603;BME280;28233;55.748;48.752;2022-09-12T04:32:25;99931.75;;;8.82;89.25
42603;BME280;28233;55.748;48.752;2022-09-12T04:34:29;99933.56;;;8.86;89.23
42603;BME280;28233;55.748;48.752;2022-09-12T04:36:32;99943.88;;;8.95;88.62
42603;BME280;28233;55.748;48.752;2022-09-12T04:38:36;99933.94;;;8.99;88.82
42603;BME280;28233;55.748;48.752;2022-09-12T04:40:39;99941.25;;;9.03;88.67
42603;BME280;28233;55.748;48.752;2022-09-12T04:42:41;99949.69;;;9.07;88.62
42603;BME280;28233;55.748;48.752;2022-09-12T04:44:44;99942.25;;;9.07;88.09
42603;BME280;28233;55.748;48.752;2022-09-12T04:46:47;99941.88;;;9.14;87.90
42603;BME280;28233;55.748;48.752;2022-09-12T04:48:50;99950.63;;;9.16;87.68
42603;BME280;28233;55.748;48.752;2022-09-12T04:51:15;99953.78;;;9.23;87.15
42603;BME280;28233;55.748;48.752;2022-09-12T04:53:18;99954.81;;;9.27;86.79
42603;BME280;28233;55.748;48.752;2022-09-12T04:55:21;99955.91;;;9.26;86.74
42603;BME280;28233;55.748;48.752;2022-09-12T04:57:26;99946.75;;;9.31;87.10
42603;BME280;28233;55.748;48.752;2022-09-12T04:59:29;99959.28;;;9.37;86.46
42603;BME280;28233;55.748;48.752;2022-09-12T05:01:31;99957.16;;;9.48;85.79
42603;BME280;28233;55.748;48.752;2022-09-12T05:03:35;99961.13;;;9.56;85.55
42603;BME280;28233;55.748;48.752;2022-09-12T05:05:45;99956.97;;;9.58;85.25
42603;BME280;28233;55.748;48.752;2022-09-12T05:07:48;99953.50;;;9.66;84.99
42603;BME280;28233;55.748;48.752;2022-09-12T05:09:50;99954.72;;;9.74;84.75
42603;BME280;28233;55.748;48.752;2022-09-12T05:11:53;99950.75;;;9.80;83.85
42603;BME280;28233;55.748;48.752;2022-09-12T05:14:11;99968.44;;;9.88;82.98
42603;BME280;28233;55.748;48.752;2022-09-12T05:16:15;99959.19;;;9.98;82.55
42603;BME280;28233;55.748;48.752;2022-09-12T05:18:18;99958.16;;;10.07;81.74
42603;BME280;28233;55.748;48.752;2022-09-12T05:20:20;99948.97;;;10.26;81.18
42603;BME280;28233;55.748;48.752;2022-09-12T05:22:23;99950.56;;;10.41;80.50
42603;BME280;28233;55.748;48.752;2022-09-12T05:24:26;99948.88;;;10.53;78.84
42603;BME280;28233;55.748;48.752;2022-09-12T05:26:29;99954.47;;;10.62;78.24
42603;BME280;28233;55.748;48.752;2022-09-12T05:28:34;99951.00;;;10.70;77.31
42603;BME280;28233;55.748;48.752;2022-09-12T05:30:37;99947.78;;;10.77;76.08
42603;BME280;28233;55.748;48.752;2022-09-12T05:32:39;99951.41;;;10.86;74.66
42603;BME280;28233;55.748;48.752;2022-09-12T05:34:42;99941.09;;;10.92;74.08
42603;BME280;28233;55.748;48.752;2022-09-12T05:36:45;99944.38;;;11.03;73.89
42603;BME280;28233;55.748;48.752;2022-09-12T05:38:47;99946.19;;;11.07;73.86
42603;BME280;28233;55.748;48.752;2022-09-12T05:40:50;99943.81;;;11.14;73.15
42603;BME280;28233;55.748;48.752;2022-09-12T05:42:53;99940.13;;;11.19;72.83
42603;BME280;28233;55.748;48.752;2022-09-12T05:44:56;99946.63;;;11.23;72.69
42603;BME280;28233;55.748;48.752;2022-09-12T05:46:58;99951.16;;;11.28;73.06
42603;BME280;28233;55.748;48.752;2022-09-12T05:49:06;99951.03;;;11.33;72.85
42603;BME280;28233;55.748;48.752;2022-09-12T05:51:12;99941.69;;;11.42;71.93
42603;BME280;28233;55.748;48.752;2022-09-12T05:53:14;99946.75;;;11.49;71.48
42603;BME280;28233;55.748;48.752;2022-09-12T05:55:17;99946.47;;;11.59;71.49
42603;BME280;28233;55.748;48.752;2022-09-12T05:57:20;99946.13;;;11.61;70.59
42603;BME280;28233;55.748;48.752;2022-09-12T05:59:23;99947.94;;;11.66;70.58
42603;BME280;28233;55.748;48.752;2022-09-12T06:01:27;99946.22;;;11.78;70.47
42603;BME280;28233;55.748;48.752;2022-09-12T06:03:30;99950.81;;;12.00;70.66
42603;BME280;28233;55.748;48.752;2022-09-12T06:05:33;99942.44;;;12.14;70.13
42603;BME280;28233;55.748;48.752;2022-09-12T06:07:35;99952.34;;;12.33;69.11
42603;BME280;28233;55.748;48.752;2022-09-12T06:09:38;99953.63;;;12.44;68.85
42603;BME280;28233;55.748;48.752;2022-09-12T06:11:41;99954.75;;;12.60;68.53
42603;BME280;28233;55.748;48.752;2022-09-12T06:13:44;99957.34;;;12.83;68.35
42603;BME280;28233;55.748;48.752;2022-09-12T06:15:47;99956.19;;;13.01;67.67
42603;BME280;28233;55.748;48.752;2022-09-12T06:17:49;99957.63;;;13.16;66.74
42603;BME280;28233;55.748;48.752;2022-09-12T06:19:52;99960.69;;;13.32;65.93
42603;BME280;28233;55.748;48.752;2022-09-12T06:21:55;99952.91;;;13.34;64.38
42603;BME280;28233;55.748;48.752;2022-09-12T06:23:58;99954.66;;;13.39;63.99
42603;BME280;28233;55.748;48.752;2022-09-12T06:26:01;99955.69;;;13.64;63.76
42603;BME280;28233;55.748;48.752;2022-09-12T06:28:05;99960.81;;;13.83;62.20
42603;BME280;28233;55.748;48.752;2022-09-12T06:30:08;99958.00;;;13.91;61.36
42603;BME280;28233;55.748;48.752;2022-09-12T06:32:11;99958.56;;;14.06;60.78
42603;BME280;28233;55.748;48.752;2022-09-12T06:34:14;99955.56;;;14.20;61.25
42603;BME280;28233;55.748;48.752;2022-09-12T06:36:22;99951.59;;;14.29;61.34
42603;BME280;28233;55.748;48.752;2022-09-12T06:38:25;99956.16;;;14.46;59.15
42603;BME280;28233;55.748;48.752;2022-09-12T06:40:28;99954.31;;;14.59;59.40
42603;BME280;28233;55.748;48.752;2022-09-12T06:42:31;99955.13;;;14.80;59.39
42603;BME280;28233;55.748;48.752;2022-09-12T06:44:34;99957.97;;;15.05;58.00
42603;BME280;28233;55.748;48.752;2022-09-12T06:46:37;99948.38;;;15.02;55.75
42603;BME280;28233;55.748;48.752;2022-09-12T06:48:40;99946.56;;;15.07;56.14
42603;BME280;28233;55.748;48.752;2022-09-12T06:50:54;99940.03;;;15.23;55.86
42603;BME280;28233;55.748;48.752;2022-09-12T06:52:57;99952.63;;;15.33;54.58
42603;BME280;28233;55.748;48.752;2022-09-12T06:55:00;99951.34;;;15.31;53.05
42603;BME280;28233;55.748;48.752;2022-09-12T06:57:02;99946.47;;;15.15;52.81
42603;BME280;28233;55.748;48.752;2022-09-12T06:59:05;99942.91;;;15.15;52.33
42603;BME280;28233;55.748;48.752;2022-09-12T07:01:16;99941.88;;;15.19;52.30
42603;BME280;28233;55.748;48.752;2022-09-12T07:03:19;99945.09;;;14.88;52.24
42603;BME280;28233;55.748;48.752;2022-09-12T07:05:22;99948.09;;;14.83;52.59
42603;BME280;28233;55.748;48.752;2022-09-12T07:07:25;99939.03;;;14.95;53.86
42603;BME280;28233;55.748;48.752;2022-09-12T07:09:27;99944.59;;;15.07;55.01
42603;BME280;28233;55.748;48.752;2022-09-12T07:11:34;99943.94;;;15.22;54.62
42603;BME280;28233;55.748;48.752;2022-09-12T07:13:38;99945.00;;;15.30;54.23
42603;BME280;28233;55.748;48.752;2022-09-12T07:15:41;99945.78;;;15.31;53.67
42603;BME280;28233;55.748;48.752;2022-09-12T07:17:44;99950.53;;;15.42;54.14
42603;BME280;28233;55.748;48.752;2022-09-12T07:19:46;99953.22;;;15.51;54.12
42603;BME280;28233;55.748;48.752;2022-09-12T07:21:49;99949.66;;;15.63;53.13
42603;BME280;28233;55.748;48.752;2022-09-12T07:23:57;99951.94;;;15.49;51.97
42603;BME280;28233;55.748;48.752;2022-09-12T07:26:01;99949.88;;;15.58;51.31
42603;BME280;28233;55.748;48.752;2022-09-12T07:28:03;99950.34;;;15.60;51.04
42603;BME280;28233;55.748;48.752;2022-09-12T07:30:06;99956.13;;;15.55;50.42
42603;BME280;28233;55.748;48.752;2022-09-12T07:32:09;99952.75;;;15.61;51.32
42603;BME280;28233;55.748;48.752;2022-09-12T07:34:13;99951.19;;;15.73;50.39
42603;BME280;28233;55.748;48.752;2022-09-12T07:36:18;99942.28;;;15.67;50.13
42603;BME280;28233;55.748;48.752;2022-09-12T07:38:21;99951.84;;;15.70;50.71
42603;BME280;28233;55.748;48.752;2022-09-12T07:40:24;99944.50;;;15.74;51.17
42603;BME280;28233;55.748;48.752;2022-09-12T07:42:29;99945.66;;;15.85;51.17
42603;BME280;28233;55.748;48.752;2022-09-12T07:44:51;99943.81;;;15.89;50.38
42603;BME280;28233;55.748;48.752;2022-09-12T07:46:55;99932.38;;;15.91;50.45
42603;BME280;28233;55.748;48.752;2022-09-12T07:48:59;99941.00;;;16.01;50.81
42603;BME280;28233;55.748;48.752;2022-09-12T07:51:07;99942.31;;;16.04;48.92
42603;BME280;28233;55.748;48.752;2022-09-12T07:53:10;99938.59;;;16.00;50.09
42603;BME280;28233;55.748;48.752;2022-09-12T07:55:13;99934.91;;;15.96;49.40
42603;BME280;28233;55.748;48.752;2022-09-12T07:57:16;99937.56;;;16.04;49.30
42603;BME280;28233;55.748;48.752;2022-09-12T07:59:18;99932.25;;;16.12;49.33
42603;BME280;28233;55.748;48.752;2022-09-12T08:01:41;99944.25;;;16.16;49.72
42603;BME280;28233;55.748;48.752;2022-09-12T08:03:46;99942.19;;;16.00;48.58
42603;BME280;28233;55.748;48.752;2022-09-12T08:05:49;99944.25;;;15.67;48.31
42603;BME280;28233;55.748;48.752;2022-09-12T08:07:52;99937.53;;;15.55;48.89
42603;BME280;28233;55.748;48.752;2022-09-12T08:09:58;99944.81;;;15.60;48.91
42603;BME280;28233;55.748;48.752;2022-09-12T08:12:01;99943.31;;;15.50;47.79
42603;BME280;28233;55.748;48.752;2022-09-12T08:14:04;99945.75;;;15.64;48.88
42603;BME280;28233;55.748;48.752;2022-09-12T08:16:12;99938.69;;;15.54;47.48
42603;BME280;28233;55.748;48.752;2022-09-12T08:18:15;99943.97;;;15.47;48.63
42603;BME280;28233;55.748;48.752;2022-09-12T08:20:18;99939.84;;;15.53;49.57
42603;BME280;28233;55.748;48.752;2022-09-12T08:22:21;99950.72;;;15.71;49.33
42603;BME280;28233;55.748;48.752;2022-09-12T08:24:23;99947.63;;;15.72;49.48
42603;BME280;28233;55.748;48.752;2022-09-12T08:26:26;99941.69;;;15.49;48.52
42603;BME280;28233;55.748;48.752;2022-09-12T08:28:30;99944.13;;;15.51;49.20
42603;BME280;28233;55.748;48.752;2022-09-12T08:30:33;99945.69;;;15.27;48.21
42603;BME280;28233;55.748;48.752;2022-09-12T08:32:36;99943.03;;;14.85;49.29
42603;BME280;28233;55.748;48.752;2022-09-12T08:34:38;99946.34;;;14.78;50.34
42603;BME280;28233;55.748;48.752;2022-09-12T08:36:41;99942.50;;;14.71;50.26
42603;BME280;28233;55.748;48.752;2022-09-12T08:38:45;99937.81;;;14.84;51.48
42603;BME280;28233;55.748;48.752;2022-09-12T08:40:53;99947.81;;;14.76;50.21
42603;BME280;28233;55.748;48.752;2022-09-12T08:43:10;99945.41;;;14.53;50.72
42603;BME280;28233;55.748;48.752;2022-09-12T08:45:20;99942.16;;;14.30;50.36
42603;BME280;28233;55.748;48.752;2022-09-12T08:47:29;99937.38;;;14.40;50.23
42603;BME280;28233;55.748;48.752;2022-09-12T08:49:38;99938.06;;;14.57;49.49
42603;BME280;28233;55.748;48.752;2022-09-12T08:51:46;99931.88;;;14.61;50.13
42603;BME280;28233;55.748;48.752;2022-09-12T08:53:50;99937.66;;;14.68;49.48
42603;BME280;28233;55.748;48.752;2022-09-12T08:55:57;99938.28;;;14.86;50.51
42603;BME280;28233;55.748;48.752;2022-09-12T08:58:16;99933.75;;;15.02;48.48
42603;BME280;28233;55.748;48.752;2022-09-12T09:00:20;99933.22;;;15.21;51.26
42603;BME280;28233;55.748;48.752;2022-09-12T09:08:20;99932.63;;;15.73;50.97
42603;BME280;28233;55.748;48.752;2022-09-12T09:11:32;99934.28;;;15.41;50.02
42603;BME280;28233;55.748;48.752;2022-09-12T09:16:19;99935.38;;;14.70;51.09
42603;BME280;28233;55.748;48.752;2022-09-12T09:18:27;99931.09;;;14.51;49.99
42603;BME280;28233;55.748;48.752;2022-09-12T09:20:50;99928.50;;;14.55;50.50
42603;BME280;28233;55.748;48.752;2022-09-12T09:25:23;99923.81;;;14.89;48.84
42603;BME280;28233;55.748;48.752;2022-09-12T09:27:45;99926.00;;;14.95;49.37
42603;BME280;28233;55.748;48.752;2022-09-12T09:29:52;99928.22;;;15.02;47.98
42603;BME280;28233;55.748;48.752;2022-09-12T09:31:59;99922.28;;;15.25;48.42
42603;BME280;28233;55.748;48.752;2022-09-12T09:34:09;99934.16;;;15.50;49.66
42603;BME280;28233;55.748;48.752;2022-09-12T09:36:29;99914.91;;;15.65;49.96
42603;BME280;28233;55.748;48.752;2022-09-12T09:43:17;99915.56;;;16.24;49.49
42603;BME280;28233;55.748;48.752;2022-09-12T09:45:23;99911.84;;;16.44;50.80
42603;BME280;28233;55.748;48.752;2022-09-12T09:47:27;99911.38;;;16.70;50.23
42603;BME280;28233;55.748;48.752;2022-09-12T09:49:33;99912.00;;;16.92;50.48
42603;BME280;28233;55.748;48.752;2022-09-12T09:51:38;99911.84;;;17.01;48.44
42603;BME280;28233;55.748;48.752;2022-09-12T09:53:53;99912.50;;;17.10;48.51
42603;BME280;28233;55.748;48.752;2022-09-12T09:55:59;99913.09;;;17.03;47.89
42603;BME280;28233;55.748;48.752;2022-09-12T09:58:03;99910.41;;;16.91;47.14
42603;BME280;28233;55.748;48.752;2022-09-12T10:00:27;99907.44;;;16.84;46.91
42603;BME280;28233;55.748;48.752;2022-09-12T10:02:31;99904.66;;;16.84;47.79
42603;BME280;28233;55.748;48.752;2022-09-12T10:04:38;99912.16;;;16.83;46.50
42603;BME280;28233;55.748;48.752;2022-09-12T10:06:43;99905.47;;;16.84;46.14
42603;BME280;28233;55.748;48.752;2022-09-12T10:08:46;99913.38;;;16.98;45.84
42603;BME280;28233;55.748;48.752;2022-09-12T10:11:01;99906.19;;;16.97;45.67
42603;BME280;28233;55.748;48.752;2022-09-12T10:13:50;99901.13;;;17.15;44.89
42603;BME280;28233;55.748;48.752;2022-09-12T10:16:03;99914.19;;;17.30;43.78
42603;BME280;28233;55.748;48.752;2022-09-12T10:18:06;99905.88;;;17.46;44.46
42603;BME280;28233;55.748;48.752;2022-09-12T10:22:33;99910.03;;;18.04;43.40
42603;BME280;28233;55.748;48.752;2022-09-12T10:24:39;99912.41;;;18.02;43.41
42603;BME280;28233;55.748;48.752;2022-09-12T10:26:44;99912.66;;;17.96;44.38
42603;BME280;28233;55.748;48.752;2022-09-12T10:28:52;99904.22;;;18.09;44.47
42603;BME280;28233;55.748;48.752;2022-09-12T10:30:55;99905.47;;;18.11;44.13
42603;BME280;28233;55.748;48.752;2022-09-12T10:33:10;99901.19;;;18.17;44.95
42603;BME280;28233;55.748;48.752;2022-09-12T10:35:22;99908.69;;;18.13;44.16
42603;BME280;28233;55.748;48.752;2022-09-12T10:37:33;99914.91;;;17.91;44.47
42603;BME280;28233;55.748;48.752;2022-09-12T10:39:37;99907.84;;;17.62;44.93
42603;BME280;28233;55.748;48.752;2022-09-12T10:41:40;99906.16;;;17.41;45.04
42603;BME280;28233;55.748;48.752;2022-09-12T10:43:43;99908.47;;;17.23;45.53
42603;BME280;28233;55.748;48.752;2022-09-12T10:45:46;99903.59;;;17.04;44.93
42603;BME280;28233;55.748;48.752;2022-09-12T10:47:50;99905.19;;;16.89;45.49
42603;BME280;28233;55.748;48.752;2022-09-12T10:49:53;99907.31;;;16.80;46.58
42603;BME280;28233;55.748;48.752;2022-09-12T10:52:24;99910.81;;;16.65;46.03
42603;BME280;28233;55.748;48.752;2022-09-12T10:54:27;99910.59;;;16.58;46.38
42603;BME280;28233;55.748;48.752;2022-09-12T10:56:32;99903.25;;;16.49;46.62
42603;BME280;28233;55.748;48.752;2022-09-12T11:05:57;99896.38;;;16.31;46.72
42603;BME280;28233;55.748;48.752;2022-09-12T11:22:23;99893.84;;;18.45;43.27
42603;BME280;28233;55.748;48.752;2022-09-12T11:34:02;99876.72;;;18.23;41.55
42603;BME280;28233;55.748;48.752;2022-09-12T11:37:24;99885.59;;;18.13;42.21
42603;BME280;28233;55.748;48.752;2022-09-12T11:41:26;99885.06;;;17.88;44.11
42603;BME280;28233;55.748;48.752;2022-09-12T11:45:44;99873.69;;;17.61;44.79
42603;BME280;28233;55.748;48.752;2022-09-12T11:47:53;99870.03;;;17.41;44.70
42603;BME280;28233;55.748;48.752;2022-09-12T11:49:57;99877.75;;;17.32;45.37
42603;BME280;28233;55.748;48.752;2022-09-12T11:54:27;99881.22;;;17.13;45.13
42603;BME280;28233;55.748;48.752;2022-09-12T11:56:34;99871.72;;;16.98;45.53
42603;BME280;28233;55.748;48.752;2022-09-12T11:58:41;99876.97;;;16.87;46.44
42603;BME280;28233;55.748;48.752;2022-09-12T12:00:50;99869.16;;;16.77;46.10
42603;BME280;28233;55.748;48.752;2022-09-12T12:03:07;99867.53;;;16.76;46.23
42603;BME280;28233;55.748;48.752;2022-09-12T12:05:21;99874.84;;;16.68;47.25
42603;BME280;28233;55.748;48.752;2022-09-12T12:07:30;99866.69;;;16.60;46.37
42603;BME280;28233;55.748;48.752;2022-09-12T12:09:50;99869.25;;;16.53;46.57
42603;BME280;28233;55.748;48.752;2022-09-12T12:11:55;99870.50;;;16.55;46.31
42603;BME280;28233;55.748;48.752;2022-09-12T12:16:12;99865.94;;;16.75;43.22
42603;BME280;28233;55.748;48.752;2022-09-12T12:18:26;99868.72;;;17.19;43.09
42603;BME280;28233;55.748;48.752;2022-09-12T12:20:29;99866.25;;;17.65;40.86
42603;BME280;28233;55.748;48.752;2022-09-12T12:22:32;99858.88;;;18.08;39.95
42603;BME280;28233;55.748;48.752;2022-09-12T12:25:01;99857.75;;;18.68;39.72
42603;BME280;28233;55.748;48.752;2022-09-12T12:27:23;99856.44;;;19.27;38.83
42603;BME280;28233;55.748;48.752;2022-09-12T12:29:38;99849.84;;;19.62;37.32
42603;BME280;28233;55.748;48.752;2022-09-12T12:34:20;99844.97;;;20.42;37.09
42603;BME280;28233;55.748;48.752;2022-09-12T12:36:35;99848.25;;;20.82;35.78
42603;BME280;28233;55.748;48.752;2022-09-12T12:38:39;99846.22;;;21.23;35.32
42603;BME280;28233;55.748;48.752;2022-09-12T12:40:42;99852.88;;;21.52;34.42
42603;BME280;28233;55.748;48.752;2022-09-12T12:44:49;99852.97;;;21.19;34.04
42603;BME280;28233;55.748;48.752;2022-09-12T12:49:25;99846.88;;;20.68;35.79
42603;BME280;28233;55.748;48.752;2022-09-12T12:51:41;99844.91;;;20.69;35.19
42603;BME280;28233;55.748;48.752;2022-09-12T12:53:45;99853.47;;;20.53;35.74
42603;BME280;28233;55.748;48.752;2022-09-12T12:55:50;99847.41;;;20.44;35.91
42603;BME280;28233;55.748;48.752;2022-09-12T12:58:04;99844.91;;;20.69;34.27